In Rescue
 
Open Full Screen Window  High Contrast Mode
September 22, 2020 12:01 AM CDT
Weather Information
Wind Direction
  ---
Wind Speed
  00 kt (0 mph)
Wind Gust
  00 kt (0 mph)
Altimeter
30.10 in
Visibility
10 SM
Temperature
12° C
54° F
Dewpoint
11° C
52° F
Humidity
94%
1hr Rain Fall
00.00 in.
24hr Rain Fall
00.00 in.
Sky Condition
Clear
VFR

METAR KPWC 220501Z AUTO 00000KT 10SM CLR 12/11 A3010 RMK AO2

FAA Disclaimer: The data displayed is for advisory purposes only and is not to be used for flight planning or operations.